createdAt,value
2023-05-10T03:50:25.001Z,100545.50
2023-05-10T03:53:27.892Z,100541.16
2023-05-10T03:56:30.961Z,100542.97
2023-05-10T03:59:33.629Z,100548.22
2023-05-10T04:02:35.897Z,100540.28
2023-05-10T04:05:38.591Z,100543.94
2023-05-10T04:08:40.844Z,100541.31
2023-05-10T04:11:43.400Z,100549.25
2023-05-10T04:14:45.482Z,100541.47
2023-05-10T04:17:48.076Z,100536.13
2023-05-10T04:20:50.176Z,100534.44
2023-05-10T04:23:52.668Z,100543.34
2023-05-10T04:26:57.165Z,100543.25
2023-05-10T04:30:00.478Z,100544.94
2023-05-10T04:33:05.605Z,100544.94
2023-05-10T04:36:08.234Z,100539.84
2023-05-10T04:39:10.899Z,100545.91
2023-05-10T04:42:15.773Z,100553.62
2023-05-10T04:45:17.990Z,100549.31
2023-05-10T04:48:20.339Z,100551.03
2023-05-10T04:51:22.485Z,100546.75
2023-05-10T04:54:25.262Z,100553.78
2023-05-10T04:57:27.410Z,100551.44
2023-05-10T05:00:29.795Z,100548.78
2023-05-10T05:03:32.079Z,100550.56
2023-05-10T05:06:34.519Z,100547.88
2023-05-10T05:09:36.688Z,100547.88
2023-05-10T05:12:39.083Z,100551.41
2023-05-10T05:15:41.380Z,100547.97
2023-05-10T05:18:43.771Z,100556.00
2023-05-10T05:21:46.009Z,100548.19
2023-05-10T05:24:48.391Z,100552.66
2023-05-10T05:27:50.665Z,100554.56
2023-05-10T05:30:53.132Z,100559.75
2023-05-10T05:33:55.384Z,100566.66
2023-05-10T05:36:57.774Z,100559.69
2023-05-10T05:40:01.056Z,100564.09
2023-05-10T05:43:03.403Z,100566.81
2023-05-10T05:46:06.432Z,100570.38
2023-05-10T05:49:08.919Z,100570.47
2023-05-10T05:52:10.997Z,100570.47
2023-05-10T05:55:13.800Z,100579.22
2023-05-10T05:58:15.945Z,100571.38
2023-05-10T06:01:18.433Z,100576.66
2023-05-10T06:04:21.039Z,100574.94
2023-05-10T06:07:23.261Z,100585.47
2023-05-10T06:10:26.417Z,100574.97
2023-05-10T06:13:33.594Z,100575.91
2023-05-10T06:16:50.386Z,100584.66
2023-05-10T06:19:56.423Z,100580.34
2023-05-10T06:22:59.549Z,100575.94
2023-05-10T06:26:01.769Z,100581.19
2023-05-10T06:29:04.153Z,100593.50
2023-05-10T06:32:06.295Z,100577.75
2023-05-10T06:35:09.343Z,100590.97
2023-05-10T06:38:11.709Z,100588.34
2023-05-10T06:41:14.223Z,100590.97
2023-05-10T06:44:16.520Z,100584.84
2023-05-10T06:47:19.053Z,100582.22
2023-05-10T06:50:21.212Z,100583.09
2023-05-10T06:53:23.655Z,100577.81
2023-05-10T06:56:25.931Z,100572.56
2023-05-10T06:59:28.533Z,100578.69
2023-05-10T07:02:30.843Z,100566.37
2023-05-10T07:05:33.381Z,100573.38
2023-05-10T07:08:35.666Z,100575.13
2023-05-10T07:11:38.495Z,100568.91
2023-05-10T07:14:40.876Z,100561.03
2023-05-10T07:17:44.108Z,100570.72
2023-05-10T07:20:47.844Z,100569.81
2023-05-10T07:23:50.676Z,100568.84
2023-05-10T07:26:52.979Z,100571.47
2023-05-10T07:29:56.496Z,100564.34
2023-05-10T07:32:58.682Z,100568.78
2023-05-10T07:36:01.311Z,100565.22
2023-05-10T07:39:03.860Z,100559.84
2023-05-10T07:42:06.698Z,100562.31
2023-05-10T07:45:09.583Z,100557.91
2023-05-10T07:48:12.039Z,100554.31
2023-05-10T07:51:14.546Z,100555.22
2023-05-10T07:54:17.377Z,100557.09
2023-05-10T07:57:19.531Z,100566.84
2023-05-10T08:00:22.092Z,100557.31
2023-05-10T08:03:24.652Z,100551.94
2023-05-10T08:06:30.898Z,100569.56
2023-05-10T08:09:33.705Z,100562.50
2023-05-10T08:12:35.879Z,100566.91
2023-05-10T08:15:38.306Z,100562.34
2023-05-10T08:18:47.307Z,100555.00
2023-05-10T08:21:49.743Z,100554.12
2023-05-10T08:24:52.052Z,100562.97
2023-05-10T08:27:54.557Z,100554.09
2023-05-10T08:30:56.856Z,100555.75
2023-05-10T08:33:59.383Z,100555.78
2023-05-10T08:37:01.583Z,100551.97
2023-05-10T08:40:04.303Z,100549.00
2023-05-10T08:43:09.864Z,100551.59
2023-05-10T08:46:16.325Z,100550.16
2023-05-10T08:49:20.208Z,100553.84
2023-05-10T08:52:26.052Z,100549.66
2023-05-10T08:55:28.868Z,100551.38
2023-05-10T08:58:31.780Z,100547.03
2023-05-10T09:01:36.371Z,100547.97
2023-05-10T09:04:38.868Z,100544.44
2023-05-10T09:07:41.019Z,100554.03
2023-05-10T09:10:44.803Z,100545.66
2023-05-10T09:13:49.117Z,100545.37
2023-05-10T09:16:51.880Z,100554.38
2023-05-10T09:20:01.172Z,100535.78
2023-05-10T09:23:03.557Z,100535.53
2023-05-10T09:26:06.522Z,100545.09
2023-05-10T09:29:09.413Z,100548.87
2023-05-10T09:32:13.869Z,100534.81
2023-05-10T09:35:22.075Z,100533.66
2023-05-10T09:38:25.339Z,100530.78
2023-05-10T09:41:29.048Z,100524.69
2023-05-10T09:44:32.838Z,100518.31
2023-05-10T09:47:36.900Z,100521.59
2023-05-10T09:50:39.824Z,100518.63
2023-05-10T09:53:42.583Z,100530.03
2023-05-10T09:56:44.737Z,100523.97
2023-05-10T09:59:48.030Z,100519.66
2023-05-10T10:02:58.580Z,100516.22
2023-05-10T10:06:01.323Z,100517.59
2023-05-10T10:09:03.663Z,100505.06
2023-05-10T10:12:06.478Z,100496.75
2023-05-10T10:15:10.021Z,100503.91
2023-05-10T10:18:16.383Z,100500.91
2023-05-10T10:21:19.422Z,100498.78
2023-05-10T10:24:21.827Z,100491.31
2023-05-10T10:27:59.512Z,100493.56
2023-05-10T10:31:16.737Z,100485.88
2023-05-10T10:34:30.562Z,100488.75
2023-05-10T10:37:45.449Z,100485.78
2023-05-10T10:40:48.798Z,100491.37
2023-05-10T10:44:23.314Z,100489.91
2023-05-10T10:47:26.106Z,100477.13
2023-05-10T10:50:28.738Z,100468.66
2023-05-10T10:53:31.683Z,100468.31
2023-05-10T10:56:35.200Z,100480.34
2023-05-10T10:59:46.297Z,100467.59
2023-05-10T11:03:07.144Z,100457.81
2023-05-10T11:06:09.636Z,100455.91
2023-05-10T11:09:13.437Z,100446.50
2023-05-10T11:12:15.695Z,100445.41
2023-05-10T11:15:18.310Z,100448.59
2023-05-10T11:18:31.379Z,100445.38
2023-05-10T11:21:35.552Z,100440.75
2023-05-10T11:24:38.092Z,100438.47
2023-05-10T11:27:42.916Z,100427.84
2023-05-10T11:30:46.080Z,100429.69
2023-05-10T11:33:53.526Z,100427.03
2023-05-10T11:36:57.392Z,100429.47
2023-05-10T11:39:59.766Z,100421.31
2023-05-10T11:43:02.673Z,100415.75
2023-05-10T11:46:07.275Z,100417.69
2023-05-10T11:49:10.070Z,100423.22
2023-05-10T11:52:12.898Z,100423.53
2023-05-10T11:55:15.004Z,100427.63
2023-05-10T11:58:19.587Z,100424.47
2023-05-10T12:01:22.969Z,100424.06
2023-05-10T12:04:26.528Z,100414.00
2023-05-10T12:07:28.714Z,100416.87
2023-05-10T12:10:35.716Z,100410.09
2023-05-10T12:13:42.324Z,100414.53
2023-05-10T12:16:44.696Z,100417.97
2023-05-10T12:19:47.322Z,100415.81
2023-05-10T12:22:54.919Z,100420.53
2023-05-10T12:26:05.056Z,100421.66
2023-05-10T12:29:15.001Z,100417.84
2023-05-10T12:32:17.152Z,100416.28
2023-05-10T12:35:24.817Z,100414.03
2023-05-10T12:38:31.466Z,100410.03
2023-05-10T12:41:33.986Z,100406.91
2023-05-10T12:44:36.071Z,100399.59
2023-05-10T12:47:39.479Z,100394.38
2023-05-10T12:50:42.956Z,100391.91
2023-05-10T12:53:48.020Z,100394.06
2023-05-10T12:56:51.496Z,100382.50
2023-05-10T12:59:55.325Z,100386.72
2023-05-10T13:02:57.443Z,100377.44
2023-05-10T13:05:59.952Z,100375.50
2023-05-10T13:09:02.050Z,100374.78
2023-05-10T13:12:04.818Z,100367.16
2023-05-10T13:15:07.703Z,100367.00
2023-05-10T13:18:10.481Z,100360.38
2023-05-10T13:21:12.731Z,100357.94
2023-05-10T13:24:15.212Z,100364.88
2023-05-10T13:27:17.355Z,100348.66
2023-05-10T13:30:19.728Z,100346.13
2023-05-10T13:33:21.882Z,100340.91
2023-05-10T13:36:24.276Z,100346.44
2023-05-10T13:39:26.445Z,100336.66
2023-05-10T13:42:29.370Z,100335.31
2023-05-10T13:45:31.507Z,100340.62
2023-05-10T13:48:34.095Z,100339.03
2023-05-10T13:51:36.766Z,100337.34
2023-05-10T13:54:39.215Z,100334.03
2023-05-10T13:57:41.739Z,100333.94
2023-05-10T14:00:44.211Z,100325.03
2023-05-10T14:03:46.658Z,100324.09
2023-05-10T14:06:49.003Z,100322.22
2023-05-10T14:09:51.505Z,100314.41
2023-05-10T14:12:53.593Z,100307.19
2023-05-10T14:15:56.396Z,100306.13
2023-05-10T14:18:58.576Z,100303.81
2023-05-10T14:22:01.128Z,100304.47
2023-05-10T14:25:03.537Z,100298.78
2023-05-10T14:28:05.969Z,100291.25
2023-05-10T14:31:08.053Z,100289.94
2023-05-10T14:34:10.617Z,100288.34
2023-05-10T14:37:14.814Z,100292.00
2023-05-10T14:40:18.136Z,100290.97
2023-05-10T14:43:20.301Z,100287.25
2023-05-10T14:46:22.716Z,100280.56
2023-05-10T14:49:26.662Z,100284.59
2023-05-10T14:52:29.045Z,100283.72
2023-05-10T14:55:31.389Z,100283.06
2023-05-10T14:58:34.407Z,100282.50
2023-05-10T15:01:48.490Z,100283.84
2023-05-10T15:04:51.735Z,100279.91
2023-05-10T15:07:54.144Z,100284.37
2023-05-10T15:10:56.874Z,100284.09
2023-05-10T15:13:59.110Z,100288.19
2023-05-10T15:17:01.611Z,100289.31
2023-05-10T15:20:07.122Z,100288.37
2023-05-10T15:23:09.500Z,100289.09
2023-05-10T15:26:11.587Z,100285.28
2023-05-10T15:29:20.520Z,100288.94
2023-05-10T15:32:22.778Z,100287.72
